Time;durP1;ratioP1;P1;durP2;ratioP2;P2;SDS_P1;SDS_P2;PMS_P1;PMS_P2;Temp;Humidity;BMP_temperature;BMP_pressure;BME280_temperature;BME280_humidity;BME280_pressure;Samples;Min_cycle;Max_cycle;Signal;HPM_P1;HPM_P2
2022/01/02 00:00:44;;;;;;;5.32;2.47;;;13.20;99.90;;;;;;2079282;28;20158;-73
2022/01/02 00:01:47;;;;;;;2.72;2.38;;;13.10;99.90;;;;;;2080817;28;20025;-72
2022/01/02 00:02:51;;;;;;;3.90;2.42;;;13.10;99.90;;;;;;2078149;28;20029;-72
2022/01/02 00:03:52;;;;;;;2.58;1.95;;;13.20;99.90;;;;;;2080279;28;20037;-72
2022/01/02 00:05:05;;;;;;;3.97;2.33;;;13.10;99.90;;;;;;2086033;28;20025;-73
2022/01/02 00:06:08;;;;;;;3.20;2.15;;;13.20;99.90;;;;;;2080880;28;20502;-73
2022/01/02 00:07:11;;;;;;;4.65;2.30;;;13.10;99.90;;;;;;2079977;28;20026;-73
2022/01/02 00:08:12;;;;;;;2.40;1.88;;;13.10;99.90;;;;;;2080048;28;20497;-72
2022/01/02 00:09:28;;;;;;;5.07;2.42;;;13.20;99.90;;;;;;2089082;28;20136;-72
2022/01/02 00:10:48;;;;;;;2.97;2.42;;;13.10;99.90;;;;;;2087681;28;20525;-72
2022/01/02 00:11:52;;;;;;;2.77;2.07;;;13.10;99.90;;;;;;2087333;28;20024;-72
2022/01/02 00:12:57;;;;;;;3.80;2.22;;;13.10;99.90;;;;;;2087950;28;20255;-72
2022/01/02 00:14:08;;;;;;;4.15;2.20;;;13.00;99.90;;;;;;2088287;28;20044;-72
2022/01/02 00:15:10;;;;;;;;;;;13.00;99.90;;;;;;2088836;28;20489;-72
2022/01/02 00:16:15;;;;;;;2.88;2.08;;;12.90;99.90;;;;;;2082432;28;19971;-72
2022/01/02 00:17:18;;;;;;;5.63;3.10;;;12.90;99.90;;;;;;2079576;28;20391;-73
2022/01/02 00:18:20;;;;;;;5.32;3.22;;;12.90;99.90;;;;;;2079867;28;20022;-72
2022/01/02 00:19:29;;;;;;;3.92;3.00;;;12.90;99.90;;;;;;2080038;28;20025;-72
2022/01/02 00:20:32;;;;;;;3.15;2.50;;;12.90;99.90;;;;;;2079876;28;20037;-72
2022/01/02 00:21:38;;;;;;;5.25;2.47;;;12.90;99.90;;;;;;2079833;28;20788;-72
2022/01/02 00:22:41;;;;;;;3.13;2.30;;;12.90;99.90;;;;;;2079634;28;20033;-72
2022/01/02 00:23:56;;;;;;;3.65;2.28;;;12.90;99.90;;;;;;2080686;28;20045;-72
2022/01/02 00:24:57;;;;;;;2.35;2.15;;;12.90;99.90;;;;;;2088317;28;20025;-72
2022/01/02 00:26:04;;;;;;;4.93;2.60;;;12.90;99.90;;;;;;2087936;28;20021;-73
2022/01/02 00:27:07;;;;;;;2.35;2.13;;;12.90;99.90;;;;;;2095782;28;20435;-72
2022/01/02 00:28:11;;;;;;;2.75;2.28;;;12.90;99.90;;;;;;2095377;28;20038;-72
2022/01/02 00:29:12;;;;;;;2.47;2.20;;;12.90;99.90;;;;;;2086256;28;20395;-72
2022/01/02 00:30:13;;;;;;;3.50;2.47;;;12.90;99.90;;;;;;2072975;28;20022;-72
2022/01/02 00:31:15;;;;;;;2.30;2.10;;;12.90;99.90;;;;;;2079747;28;20041;-72
2022/01/02 00:32:17;;;;;;;3.67;2.53;;;12.90;99.90;;;;;;2084129;28;20091;-72
2022/01/02 00:33:19;;;;;;;2.50;2.30;;;12.90;99.90;;;;;;2088253;28;20033;-72
2022/01/02 00:34:20;;;;;;;4.13;2.67;;;13.00;99.90;;;;;;2071603;28;20025;-72
2022/01/02 00:35:22;;;;;;;4.22;2.95;;;13.00;99.90;;;;;;2078247;28;20033;-72
2022/01/02 00:36:22;;;;;;;2.40;2.03;;;13.00;99.90;;;;;;2087412;28;20542;-73
2022/01/02 00:37:24;;;;;;;3.38;2.67;;;13.00;99.90;;;;;;2082339;28;20459;-73
2022/01/02 00:38:24;;;;;;;4.55;2.50;;;13.00;99.90;;;;;;2073226;28;20478;-72
2022/01/02 00:39:25;;;;;;;4.55;2.78;;;13.00;99.90;;;;;;2079760;28;20433;-72
2022/01/02 00:40:25;;;;;;;3.10;2.38;;;13.00;99.90;;;;;;2079959;28;20072;-72
2022/01/02 00:41:34;;;;;;;4.18;2.75;;;13.00;99.90;;;;;;2079340;28;20034;-73
2022/01/02 00:42:38;;;;;;;2.92;2.20;;;13.00;99.90;;;;;;2079383;28;20465;-72
2022/01/02 00:43:48;;;;;;;2.75;1.90;;;13.00;99.90;;;;;;2078699;28;20448;-72
2022/01/02 00:45:03;;;;;;;;;;;13.00;99.90;;;;;;2074163;28;20407;-72
2022/01/02 00:46:05;;;;;;;3.08;2.08;;;12.90;99.90;;;;;;2072261;28;19917;-72
2022/01/02 00:47:37;;;;;;;3.17;2.20;;;12.90;99.90;;;;;;2086320;28;20706;-72
2022/01/02 00:48:42;;;;;;;4.05;2.42;;;12.90;99.90;;;;;;2086919;28;20040;-73
2022/01/02 00:49:54;;;;;;;3.92;2.10;;;12.90;99.90;;;;;;2087910;28;20025;-73
2022/01/02 00:51:26;;;;;;;1.90;1.80;;;12.90;99.90;;;;;;2084657;28;20018;-72
2022/01/02 00:52:28;;;;;;;2.55;2.20;;;12.90;99.90;;;;;;2078425;28;20064;-72
2022/01/02 00:53:35;;;;;;;2.95;2.40;;;12.90;99.90;;;;;;2086484;28;20081;-72
2022/01/02 00:54:39;;;;;;;2.60;2.00;;;12.90;99.90;;;;;;2088306;28;20508;-72
2022/01/02 00:55:42;;;;;;;5.65;2.83;;;12.90;99.90;;;;;;2081356;28;20397;-72
2022/01/02 00:56:46;;;;;;;2.40;2.20;;;12.90;99.90;;;;;;2081400;28;20091;-72
2022/01/02 00:57:57;;;;;;;4.00;2.17;;;13.00;99.90;;;;;;2082644;28;20025;-72
2022/01/02 00:59:13;;;;;;;2.95;2.47;;;13.00;99.90;;;;;;2089751;28;20021;-72
2022/01/02 01:00:17;;;;;;;3.63;2.10;;;13.00;99.90;;;;;;2084599;28;20017;-72
2022/01/02 01:01:27;;;;;;;3.85;2.50;;;13.00;99.90;;;;;;2081263;28;20697;-72
2022/01/02 01:02:55;;;;;;;3.60;2.70;;;13.00;99.90;;;;;;2078006;28;20044;-72
2022/01/02 01:03:56;;;;;;;5.50;2.70;;;13.00;99.90;;;;;;2080299;28;20045;-72
2022/01/02 01:05:00;;;;;;;7.85;2.15;;;13.00;99.90;;;;;;2089139;28;20040;-72
2022/01/02 01:06:04;;;;;;;3.25;2.22;;;13.00;99.90;;;;;;2090685;28;20035;-72
2022/01/02 01:07:05;;;;;;;2.22;1.80;;;13.10;99.90;;;;;;2089342;28;20381;-72
2022/01/02 01:08:08;;;;;;;1.83;1.70;;;13.10;99.90;;;;;;2089520;28;20057;-72
2022/01/02 01:09:09;;;;;;;3.35;2.30;;;13.10;99.90;;;;;;2089196;28;20079;-72
2022/01/02 01:10:11;;;;;;;2.97;2.60;;;13.10;99.90;;;;;;2088718;28;20063;-72
2022/01/02 01:11:12;;;;;;;2.80;2.05;;;13.20;99.90;;;;;;2088990;28;20025;-72
2022/01/02 01:12:13;;;;;;;4.57;2.50;;;13.20;99.90;;;;;;2096232;28;20379;-72
2022/01/02 01:13:13;;;;;;;7.10;2.78;;;13.20;99.90;;;;;;2089591;28;20048;-72
2022/01/02 01:14:14;;;;;;;4.20;2.08;;;13.20;99.90;;;;;;2084463;28;20103;-72
2022/01/02 01:15:15;;;;;;;4.05;2.17;;;13.20;99.90;;;;;;2081227;28;20033;-72
2022/01/02 01:16:17;;;;;;;3.08;2.30;;;13.20;99.90;;;;;;2081204;28;20029;-72
2022/01/02 01:17:18;;;;;;;4.38;1.92;;;13.20;99.90;;;;;;2081289;28;20041;-72
2022/01/02 01:18:19;;;;;;;4.28;2.70;;;13.20;99.90;;;;;;2081106;28;20108;-72
2022/01/02 01:19:22;;;;;;;4.95;2.47;;;13.30;99.90;;;;;;2081067;28;20569;-72
2022/01/02 01:20:25;;;;;;;3.45;2.72;;;13.30;99.90;;;;;;2082247;28;20060;-72
2022/01/02 01:21:26;;;;;;;3.10;2.10;;;13.30;99.90;;;;;;2089507;28;20032;-72
2022/01/02 01:22:26;;;;;;;3.60;2.40;;;13.30;99.90;;;;;;2088493;28;20115;-72
2022/01/02 01:23:27;;;;;;;3.03;2.15;;;13.30;99.90;;;;;;2089498;28;20029;-72
2022/01/02 01:24:29;;;;;;;4.20;2.17;;;13.30;99.90;;;;;;2088952;28;20489;-72
2022/01/02 01:25:30;;;;;;;2.78;2.55;;;13.30;99.90;;;;;;2089461;28;20021;-72
2022/01/02 01:26:30;;;;;;;3.75;2.33;;;13.40;99.90;;;;;;2089327;28;20538;-72
2022/01/02 01:27:32;;;;;;;4.20;2.28;;;13.40;99.90;;;;;;2089151;28;20096;-72
2022/01/02 01:28:32;;;;;;;3.20;2.42;;;13.40;99.90;;;;;;2088029;28;20023;-72
2022/01/02 01:29:34;;;;;;;5.90;2.08;;;13.50;99.90;;;;;;2080891;28;20450;-72
2022/01/02 01:30:35;;;;;;;2.63;2.38;;;13.40;99.90;;;;;;2085677;28;20075;-72
2022/01/02 01:31:35;;;;;;;3.83;2.40;;;13.40;99.90;;;;;;2089444;28;20068;-72
2022/01/02 01:32:36;;;;;;;4.18;2.63;;;13.50;99.90;;;;;;2088829;28;20025;-72
2022/01/02 01:33:37;;;;;;;5.28;2.70;;;13.50;99.90;;;;;;2086848;28;20021;-72
2022/01/02 01:34:37;;;;;;;2.20;1.88;;;13.50;99.90;;;;;;2080933;28;20472;-72
2022/01/02 01:35:40;;;;;;;2.72;2.20;;;13.50;99.90;;;;;;2081025;28;20033;-72
2022/01/02 01:36:40;;;;;;;2.33;2.10;;;13.50;99.90;;;;;;2080740;28;20637;-72
2022/01/02 01:37:41;;;;;;;3.20;2.22;;;13.50;99.90;;;;;;2080898;28;20030;-72
2022/01/02 01:38:42;;;;;;;4.38;2.10;;;13.50;99.90;;;;;;2081023;28;20373;-72
2022/01/02 01:39:42;;;;;;;4.15;2.13;;;13.50;99.90;;;;;;2080998;28;20076;-72
2022/01/02 01:40:51;;;;;;;3.08;2.17;;;13.50;99.90;;;;;;2081051;28;20024;-72
2022/01/02 01:41:54;;;;;;;2.25;1.90;;;13.50;99.90;;;;;;2079864;28;20064;-72
2022/01/02 01:42:57;;;;;;;6.00;2.47;;;13.60;99.90;;;;;;2080960;28;20018;-72
2022/01/02 01:44:08;;;;;;;4.07;2.53;;;13.60;99.90;;;;;;2077977;28;20521;-72
2022/01/02 01:45:34;;;;;;;2.25;2.03;;;13.60;99.90;;;;;;2081628;28;20462;-72
2022/01/02 01:46:36;;;;;;;5.63;2.30;;;13.60;99.90;;;;;;2088962;28;20116;-72
2022/01/02 01:47:36;;;;;;;2.58;2.08;;;13.50;99.90;;;;;;2083027;28;20030;-72
2022/01/02 01:48:37;;;;;;;2.58;2.30;;;13.60;99.90;;;;;;2081068;28;20029;-72
2022/01/02 01:49:37;;;;;;;3.03;2.17;;;13.60;99.90;;;;;;2080662;28;20021;-72
2022/01/02 01:50:41;;;;;;;3.83;2.50;;;13.60;99.90;;;;;;2081158;28;20461;-72
2022/01/02 01:51:43;;;;;;;4.70;2.30;;;13.60;99.90;;;;;;2080490;28;20036;-72
2022/01/02 01:52:44;;;;;;;5.57;2.92;;;13.60;99.90;;;;;;2080246;28;20033;-72
2022/01/02 01:53:44;;;;;;;3.83;2.15;;;13.60;99.90;;;;;;2080572;28;20048;-72
2022/01/02 01:54:45;;;;;;;3.83;2.33;;;13.70;99.90;;;;;;2081016;28;20053;-72
2022/01/02 01:55:46;;;;;;;5.70;2.90;;;13.70;99.90;;;;;;2080975;28;21059;-72
2022/01/02 01:56:47;;;;;;;3.17;2.30;;;13.70;99.90;;;;;;2087215;28;20092;-72
2022/01/02 01:57:51;;;;;;;3.22;2.17;;;13.70;99.90;;;;;;2081350;28;20041;-72
2022/01/02 01:58:51;;;;;;;3.75;2.42;;;13.70;99.90;;;;;;2080729;28;20083;-72
2022/01/02 01:59:52;;;;;;;2.35;2.15;;;13.70;99.90;;;;;;2080410;28;20025;-72
2022/01/02 02:00:52;;;;;;;3.08;2.28;;;13.70;99.90;;;;;;2081381;28;20022;-72
2022/01/02 02:01:53;;;;;;;3.88;2.30;;;13.80;99.90;;;;;;2079239;28;20021;-72
2022/01/02 02:02:55;;;;;;;3.83;2.58;;;13.80;99.90;;;;;;2077239;28;20036;-72
2022/01/02 02:03:56;;;;;;;4.00;2.30;;;13.80;99.90;;;;;;2080758;28;20025;-72
2022/01/02 02:04:57;;;;;;;4.63;2.60;;;13.80;99.90;;;;;;2087437;28;20146;-72
2022/01/02 02:06:00;;;;;;;3.17;2.10;;;13.80;99.90;;;;;;2089057;28;20087;-72
2022/01/02 02:07:00;;;;;;;3.17;2.47;;;13.80;99.90;;;;;;2090408;28;20445;-72
2022/01/02 02:08:01;;;;;;;6.40;2.80;;;13.90;99.90;;;;;;2078324;28;20431;-72
2022/01/02 02:09:06;;;;;;;4.05;2.33;;;13.80;99.90;;;;;;2074257;28;20022;-72
2022/01/02 02:10:24;;;;;;;2.42;2.22;;;13.80;99.90;;;;;;2074080;28;20052;-72
2022/01/02 02:11:24;;;;;;;4.70;2.47;;;13.80;99.90;;;;;;2086022;28;20095;-72
2022/01/02 02:12:26;;;;;;;3.20;2.17;;;13.90;99.90;;;;;;2081858;28;20068;-72
2022/01/02 02:13:27;;;;;;;3.65;2.47;;;13.90;99.90;;;;;;2082332;28;20040;-72
2022/01/02 02:14:32;;;;;;;5.57;2.28;;;13.90;99.90;;;;;;2082371;28;20018;-72
2022/01/02 02:15:33;;;;;;;7.97;2.25;;;13.90;99.90;;;;;;2082428;28;20419;-72
2022/01/02 02:16:37;;;;;;;5.47;2.35;;;13.90;99.90;;;;;;2082172;28;20099;-72
2022/01/02 02:17:38;;;;;;;4.13;2.58;;;13.90;99.90;;;;;;2081516;28;20496;-72
2022/01/02 02:18:39;;;;;;;4.95;2.53;;;13.90;99.90;;;;;;2081390;28;20025;-72
2022/01/02 02:19:39;;;;;;;4.05;2.28;;;13.90;99.90;;;;;;2081987;28;20091;-73
2022/01/02 02:20:40;;;;;;;5.80;2.25;;;13.90;99.90;;;;;;2081981;28;20021;-72
2022/01/02 02:21:40;;;;;;;5.20;2.33;;;13.90;99.90;;;;;;2082156;28;20026;-73
2022/01/02 02:22:45;;;;;;;8.82;2.65;;;13.90;99.90;;;;;;2089408;28;20111;-72
2022/01/02 02:23:45;;;;;;;4.90;2.40;;;13.90;99.90;;;;;;2089352;28;20084;-72
2022/01/02 02:24:46;;;;;;;7.93;3.03;;;13.90;99.90;;;;;;2081843;28;20029;-72
2022/01/02 02:25:46;;;;;;;4.28;2.50;;;13.90;99.90;;;;;;2084649;28;20025;-72
2022/01/02 02:26:48;;;;;;;3.38;1.92;;;13.90;99.90;;;;;;2089521;28;20021;-72
2022/01/02 02:28:00;;;;;;;5.15;2.13;;;14.00;99.90;;;;;;2089659;28;20155;-72
2022/01/02 02:29:02;;;;;;;3.65;2.22;;;14.00;99.90;;;;;;2081971;28;20025;-72
2022/01/02 02:30:04;;;;;;;6.53;2.45;;;14.00;99.90;;;;;;2078424;28;20473;-72
2022/01/02 02:31:05;;;;;;;6.15;2.65;;;14.00;99.90;;;;;;2074813;28;20022;-72
2022/01/02 02:32:05;;;;;;;5.07;2.53;;;13.90;99.90;;;;;;2079942;28;20036;-72
2022/01/02 02:33:07;;;;;;;4.20;2.80;;;14.00;99.90;;;;;;2081855;28;20558;-72
2022/01/02 02:34:08;;;;;;;6.88;2.03;;;14.00;99.90;;;;;;2080009;28;20112;-73
2022/01/02 02:35:09;;;;;;;4.65;2.40;;;14.00;99.90;;;;;;2081261;28;20029;-72
2022/01/02 02:36:10;;;;;;;5.40;2.50;;;14.00;99.90;;;;;;2081621;28;20021;-72
2022/01/02 02:37:11;;;;;;;4.53;2.17;;;14.00;99.90;;;;;;2082057;28;20029;-72
2022/01/02 02:38:13;;;;;;;2.67;2.20;;;14.00;99.90;;;;;;2089563;28;20028;-72
2022/01/02 02:39:13;;;;;;;7.40;2.78;;;14.00;99.90;;;;;;2086667;28;20037;-72
2022/01/02 02:40:17;;;;;;;3.53;2.40;;;14.00;99.90;;;;;;2082218;28;20025;-72
2022/01/02 02:41:17;;;;;;;4.78;2.60;;;14.00;99.90;;;;;;2090297;28;20021;-72
2022/01/02 02:42:54;;;;;;;5.72;2.47;;;14.00;99.90;;;;;;2090173;28;20025;-72
2022/01/02 02:43:55;;;;;;;6.18;2.90;;;14.00;99.90;;;;;;2083662;28;20037;-72
2022/01/02 02:48:34;;;;;;;6.03;2.55;;;14.00;99.90;;;;;;2081875;28;20032;-72
2022/01/02 02:49:58;;;;;;;5.70;2.67;;;14.00;99.90;;;;;;2082040;28;20018;-72
2022/01/02 02:50:58;;;;;;;9.73;2.95;;;14.00;99.90;;;;;;2082157;28;20021;-72
2022/01/02 02:52:05;;;;;;;5.90;2.90;;;14.00;99.90;;;;;;2081509;28;20013;-72
2022/01/02 02:53:06;;;;;;;5.85;2.38;;;14.00;99.90;;;;;;2084960;28;20021;-72
2022/01/02 02:54:07;;;;;;;5.60;2.60;;;14.00;99.90;;;;;;2086171;28;20473;-72
2022/01/02 02:55:08;;;;;;;8.52;2.85;;;14.00;99.90;;;;;;2082008;28;20025;-72
2022/01/02 02:57:23;;;;;;;6.10;2.60;;;14.00;99.90;;;;;;2092511;28;20013;-72
2022/01/02 02:59:32;;;;;;;8.93;2.90;;;14.00;99.90;;;;;;2084376;28;20107;-72
2022/01/02 03:00:34;;;;;;;6.35;2.58;;;14.00;99.90;;;;;;2085188;28;20060;-72
2022/01/02 03:01:35;;;;;;;6.47;2.33;;;14.00;99.90;;;;;;2087957;28;20020;-72
2022/01/02 03:02:35;;;;;;;5.95;2.78;;;14.00;99.90;;;;;;2081552;28;20056;-72
2022/01/02 03:03:37;;;;;;;8.13;2.33;;;14.00;99.90;;;;;;2081671;28;20021;-72
2022/01/02 03:04:38;;;;;;;8.10;2.85;;;14.00;99.90;;;;;;2080865;28;20025;-72
2022/01/02 03:05:38;;;;;;;5.78;2.60;;;14.10;99.90;;;;;;2075539;28;20029;-72
2022/01/02 03:06:39;;;;;;;5.95;2.40;;;14.10;99.90;;;;;;2081943;28;20025;-72
2022/01/02 03:07:39;;;;;;;4.50;2.38;;;14.10;99.90;;;;;;2081984;28;20021;-72
2022/01/02 03:08:41;;;;;;;4.68;2.30;;;14.10;99.90;;;;;;2081504;28;20029;-72
2022/01/02 03:09:47;;;;;;;6.88;2.75;;;14.10;99.90;;;;;;2088176;28;20020;-72
2022/01/02 03:10:48;;;;;;;5.93;2.63;;;14.10;99.90;;;;;;2090118;28;20017;-72
2022/01/02 03:11:49;;;;;;;6.78;2.70;;;14.10;99.90;;;;;;2090301;28;20027;-72
2022/01/02 03:12:49;;;;;;;3.60;2.05;;;14.10;99.90;;;;;;2089820;28;20024;-72
2022/01/02 03:13:51;;;;;;;5.32;2.45;;;14.10;99.90;;;;;;2089147;28;20021;-72
2022/01/02 03:14:52;;;;;;;6.88;2.30;;;14.10;99.90;;;;;;2081844;28;20793;-72
2022/01/02 03:15:52;;;;;;;10.65;3.08;;;14.10;99.90;;;;;;2085390;28;20369;-72
2022/01/02 03:16:54;;;;;;;4.60;2.53;;;14.10;99.90;;;;;;2090106;28;20021;-72
2022/01/02 03:17:54;;;;;;;5.85;2.78;;;14.10;99.90;;;;;;2088234;28;20127;-72
2022/01/02 03:18:55;;;;;;;3.90;2.30;;;14.10;99.90;;;;;;2083554;28;20021;-72
2022/01/02 03:19:55;;;;;;;7.10;2.83;;;14.10;99.90;;;;;;2090068;28;20021;-72
2022/01/02 03:20:56;;;;;;;10.05;3.10;;;14.10;99.90;;;;;;2089864;28;20104;-72
2022/01/02 03:21:58;;;;;;;3.80;2.20;;;14.10;99.90;;;;;;2086934;28;20029;-73
2022/01/02 03:22:58;;;;;;;5.78;2.75;;;14.10;99.90;;;;;;2080916;28;20022;-72
2022/01/02 03:23:59;;;;;;;5.55;2.63;;;14.10;99.90;;;;;;2085431;28;20075;-72
2022/01/02 03:24:59;;;;;;;8.85;2.97;;;14.10;99.90;;;;;;2089756;28;20025;-72
2022/01/02 03:26:00;;;;;;;8.70;2.70;;;14.10;99.90;;;;;;2090004;28;20487;-72
2022/01/02 03:27:00;;;;;;;7.70;2.72;;;14.10;99.90;;;;;;2089781;28;20111;-72
2022/01/02 03:28:01;;;;;;;5.07;2.70;;;14.10;99.90;;;;;;2089781;28;20021;-72
2022/01/02 03:29:02;;;;;;;7.07;2.97;;;14.10;99.90;;;;;;2089768;28;20025;-72
2022/01/02 03:30:03;;;;;;;5.20;2.80;;;14.20;99.90;;;;;;2074464;28;20450;-72
2022/01/02 03:31:04;;;;;;;10.40;3.53;;;14.10;99.90;;;;;;2081595;28;20104;-72
2022/01/02 03:32:05;;;;;;;7.43;2.95;;;14.20;99.90;;;;;;2081412;28;20024;-72
2022/01/02 03:33:05;;;;;;;7.25;2.60;;;14.20;99.90;;;;;;2081660;28;20417;-72
2022/01/02 03:34:06;;;;;;;5.80;3.08;;;14.20;99.90;;;;;;2088792;28;20036;-72
2022/01/02 03:35:07;;;;;;;4.93;2.88;;;14.10;99.90;;;;;;2097409;28;20024;-72
2022/01/02 03:36:08;;;;;;;7.20;3.08;;;14.20;99.90;;;;;;2094358;28;20485;-72
2022/01/02 03:37:09;;;;;;;8.82;2.92;;;14.20;99.90;;;;;;2081560;28;20389;-72
2022/01/02 03:38:10;;;;;;;7.00;3.08;;;14.10;99.90;;;;;;2081453;28;20033;-72
2022/01/02 03:39:10;;;;;;;6.10;2.85;;;14.10;99.90;;;;;;2077328;28;20026;-72
2022/01/02 03:40:11;;;;;;;5.10;2.85;;;14.20;99.90;;;;;;2080615;28;20033;-72
2022/01/02 03:41:12;;;;;;;7.57;3.08;;;14.20;99.90;;;;;;2089840;28;20032;-72
2022/01/02 03:42:13;;;;;;;7.05;2.95;;;14.20;99.90;;;;;;2089725;28;20158;-72
2022/01/02 03:43:14;;;;;;;9.20;2.83;;;14.20;99.90;;;;;;2087865;28;20029;-72
2022/01/02 03:44:14;;;;;;;6.85;2.80;;;14.20;99.90;;;;;;2081384;28;20048;-72
2022/01/02 03:45:15;;;;;;;7.32;2.85;;;14.20;99.90;;;;;;2075217;28;20033;-72
2022/01/02 03:46:15;;;;;;;8.05;3.00;;;14.20;99.90;;;;;;2075968;28;20093;-72
2022/01/02 03:47:16;;;;;;;7.70;2.83;;;14.20;99.90;;;;;;2081575;28;20070;-72
2022/01/02 03:48:16;;;;;;;7.95;2.88;;;14.20;99.90;;;;;;2085084;28;20029;-72
2022/01/02 03:49:17;;;;;;;5.72;2.42;;;14.20;99.90;;;;;;2088573;28;20355;-72
2022/01/02 03:50:17;;;;;;;6.20;3.10;;;14.10;99.90;;;;;;2079978;28;20030;-72
2022/01/02 03:51:18;;;;;;;7.75;2.83;;;14.20;99.90;;;;;;2083588;28;20032;-73
2022/01/02 03:52:19;;;;;;;5.93;3.22;;;14.10;99.90;;;;;;2081361;28;20017;-73
2022/01/02 03:53:19;;;;;;;7.15;2.95;;;14.20;99.90;;;;;;2086177;28;20029;-73
2022/01/02 03:54:20;;;;;;;8.70;2.95;;;14.20;99.90;;;;;;2082398;28;20890;-73
2022/01/02 03:55:21;;;;;;;6.43;3.22;;;14.20;99.90;;;;;;2088124;28;20078;-73
2022/01/02 03:56:22;;;;;;;9.93;2.85;;;14.20;99.90;;;;;;2092874;28;20059;-73
2022/01/02 03:57:23;;;;;;;5.47;2.40;;;14.20;99.90;;;;;;2093907;28;20025;-73
2022/01/02 03:58:23;;;;;;;6.20;2.70;;;14.10;99.90;;;;;;2088640;28;20412;-73
2022/01/02 03:59:24;;;;;;;7.63;2.90;;;14.10;99.90;;;;;;2089882;28;20647;-73
2022/01/02 04:00:24;;;;;;;8.60;2.95;;;14.20;99.90;;;;;;2089735;28;20028;-73
2022/01/02 04:01:25;;;;;;;6.72;3.13;;;14.10;99.90;;;;;;2089836;28;20470;-73
2022/01/02 04:02:25;;;;;;;8.35;3.45;;;14.10;99.90;;;;;;2079878;28;20486;-73
2022/01/02 04:03:26;;;;;;;9.10;2.95;;;14.10;99.90;;;;;;2081388;28;20530;-73
2022/01/02 04:04:28;;;;;;;9.93;2.75;;;14.10;99.90;;;;;;2081414;28;20080;-73
2022/01/02 04:05:28;;;;;;;5.78;3.30;;;14.10;99.90;;;;;;2089086;28;20078;-73
2022/01/02 04:06:29;;;;;;;5.47;2.78;;;14.10;99.90;;;;;;2089048;28;20033;-73
2022/01/02 04:07:30;;;;;;;9.90;3.28;;;14.10;99.90;;;;;;2081002;28;20022;-73
2022/01/02 04:08:30;;;;;;;6.68;2.78;;;14.10;99.90;;;;;;2081292;28;20029;-73
2022/01/02 04:09:31;;;;;;;9.43;2.85;;;14.10;99.90;;;;;;2081303;28;20104;-73
2022/01/02 04:10:31;;;;;;;8.93;2.97;;;14.10;99.90;;;;;;2085396;28;20108;-73
2022/01/02 04:11:32;;;;;;;8.82;3.45;;;14.10;99.90;;;;;;2093740;28;20350;-73
2022/01/02 04:12:33;;;;;;;8.82;2.92;;;14.10;99.90;;;;;;2084309;28;20409;-73
2022/01/02 04:13:33;;;;;;;4.90;2.65;;;14.10;99.90;;;;;;2089961;28;20025;-73
2022/01/02 04:14:34;;;;;;;4.72;2.63;;;14.10;99.90;;;;;;2089584;28;20017;-73
2022/01/02 04:15:35;;;;;;;6.65;2.67;;;14.10;99.90;;;;;;2089860;28;20049;-73
2022/01/02 04:16:35;;;;;;;7.43;3.22;;;14.10;99.90;;;;;;2089302;28;20025;-74
2022/01/02 04:17:37;;;;;;;5.50;3.38;;;14.10;99.90;;;;;;2084887;28;20021;-73
2022/01/02 04:18:37;;;;;;;6.80;2.80;;;14.10;99.90;;;;;;2081238;28;20080;-73
2022/01/02 04:19:38;;;;;;;4.97;2.55;;;14.10;99.90;;;;;;2081350;28;20091;-73
2022/01/02 04:20:38;;;;;;;8.20;2.78;;;14.10;99.90;;;;;;2083422;28;20071;-73
2022/01/02 04:21:39;;;;;;;5.82;2.97;;;14.10;99.90;;;;;;2089786;28;20059;-73
2022/01/02 04:22:40;;;;;;;8.27;3.33;;;14.10;99.90;;;;;;2086950;28;20021;-73
2022/01/02 04:23:41;;;;;;;6.43;3.05;;;14.10;99.90;;;;;;2082060;28;20033;-73
2022/01/02 04:24:42;;;;;;;6.95;2.90;;;14.10;99.90;;;;;;2089785;28;20481;-73
2022/01/02 04:25:42;;;;;;;7.30;2.72;;;14.10;99.90;;;;;;2091270;28;20036;-73
2022/01/02 04:26:43;;;;;;;6.60;2.60;;;14.10;99.90;;;;;;2091379;28;20021;-73
2022/01/02 04:27:43;;;;;;;8.15;3.17;;;14.10;99.90;;;;;;2091215;28;20021;-73
2022/01/02 04:28:44;;;;;;;11.23;3.38;;;14.10;99.90;;;;;;2091373;28;20477;-73
2022/01/02 04:29:45;;;;;;;7.05;2.60;;;14.00;99.90;;;;;;2090922;28;20021;-73
2022/01/02 04:30:45;;;;;;;9.50;3.20;;;14.00;99.90;;;;;;2091409;28;20021;-73
2022/01/02 04:31:46;;;;;;;7.05;3.20;;;14.10;99.90;;;;;;2091086;28;20061;-73
2022/01/02 04:32:48;;;;;;;9.00;3.03;;;14.00;99.90;;;;;;2083302;28;20377;-73
2022/01/02 04:33:49;;;;;;;7.93;2.95;;;14.10;99.90;;;;;;2082255;28;20033;-73
2022/01/02 04:34:49;;;;;;;11.48;3.42;;;14.10;99.90;;;;;;2082160;28;20030;-73
2022/01/02 04:35:50;;;;;;;7.30;3.42;;;14.10;99.90;;;;;;2089888;28;20275;-73
2022/01/02 04:36:51;;;;;;;6.03;3.33;;;14.10;99.90;;;;;;2083746;28;20057;-73
2022/01/02 04:37:51;;;;;;;9.35;2.58;;;14.10;99.90;;;;;;2083016;28;20076;-73
2022/01/02 04:38:52;;;;;;;12.35;3.13;;;14.00;99.90;;;;;;2081430;28;20053;-73
2022/01/02 04:39:52;;;;;;;7.38;3.05;;;14.00;99.90;;;;;;2076028;28;20034;-73
2022/01/02 04:40:53;;;;;;;9.27;2.97;;;14.00;99.90;;;;;;2091335;28;20021;-73
2022/01/02 04:41:53;;;;;;;8.73;3.63;;;14.00;99.90;;;;;;2091078;28;20056;-73
2022/01/02 04:42:54;;;;;;;11.30;3.53;;;14.10;99.90;;;;;;2090960;28;20521;-73
2022/01/02 04:43:54;;;;;;;6.10;2.95;;;14.00;99.90;;;;;;2083538;28;20099;-73
2022/01/02 04:44:55;;;;;;;8.18;3.25;;;14.00;99.90;;;;;;2082904;28;20025;-73
2022/01/02 04:45:59;;;;;;;13.05;3.53;;;14.00;99.90;;;;;;2082769;28;20503;-73
2022/01/02 04:46:59;;;;;;;10.75;3.33;;;14.00;99.90;;;;;;2084327;28;20486;-73
2022/01/02 04:48:00;;;;;;;9.50;3.63;;;14.00;99.90;;;;;;2091503;28;20366;-73
2022/01/02 04:49:01;;;;;;;9.75;3.55;;;14.00;99.90;;;;;;2098908;28;20091;-73
2022/01/02 04:50:04;;;;;;;6.95;2.88;;;14.10;99.90;;;;;;2087351;28;20044;-73
2022/01/02 04:51:05;;;;;;;11.20;3.67;;;14.00;99.90;;;;;;2090506;28;20078;-73
2022/01/02 04:52:05;;;;;;;9.15;2.97;;;14.10;99.90;;;;;;2090158;28;20055;-73
2022/01/02 04:53:06;;;;;;;14.90;3.75;;;14.10;99.90;;;;;;2082967;28;20044;-73
2022/01/02 04:54:06;;;;;;;7.53;3.10;;;14.00;99.90;;;;;;2075254;28;20362;-73
2022/01/02 04:55:07;;;;;;;9.02;3.42;;;14.00;99.90;;;;;;2087750;28;20043;-73
2022/01/02 04:56:08;;;;;;;8.52;3.28;;;14.00;99.90;;;;;;2076168;28;20482;-74
2022/01/02 04:57:09;;;;;;;5.40;3.20;;;14.00;99.90;;;;;;2082950;28;20477;-74
2022/01/02 04:58:09;;;;;;;6.78;2.60;;;14.00;99.90;;;;;;2087515;28;20048;-73
2022/01/02 04:59:10;;;;;;;7.88;3.20;;;14.00;99.90;;;;;;2091196;28;20621;-73
2022/01/02 05:00:11;;;;;;;9.48;3.75;;;14.00;99.90;;;;;;2088508;28;20477;-73
2022/01/02 05:01:14;;;;;;;7.55;2.83;;;14.00;99.90;;;;;;2082783;28;20026;-73
2022/01/02 05:02:14;;;;;;;11.07;3.22;;;14.00;99.90;;;;;;2081772;28;20517;-74
2022/01/02 05:03:15;;;;;;;7.55;3.15;;;14.00;99.90;;;;;;2081504;28;20440;-73
2022/01/02 05:04:15;;;;;;;8.23;2.95;;;14.00;99.90;;;;;;2082823;28;20038;-73
2022/01/02 05:05:16;;;;;;;7.30;3.03;;;14.00;99.90;;;;;;2090181;28;20029;-73
2022/01/02 05:06:17;;;;;;;8.25;3.47;;;14.00;99.90;;;;;;2090462;28;20053;-73
2022/01/02 05:07:18;;;;;;;9.18;3.10;;;14.00;99.90;;;;;;2082499;28;20018;-74
2022/01/02 05:08:18;;;;;;;8.85;3.08;;;14.00;99.90;;;;;;2082868;28;20025;-73
2022/01/02 05:09:19;;;;;;;9.30;3.53;;;14.00;99.90;;;;;;2082524;28;20044;-73
2022/01/02 05:10:19;;;;;;;7.70;3.13;;;14.00;99.90;;;;;;2082753;28;20025;-73
2022/01/02 05:11:20;;;;;;;9.07;3.25;;;14.00;99.90;;;;;;2082297;28;20026;-73
2022/01/02 05:12:21;;;;;;;10.38;4.22;;;14.00;99.90;;;;;;2082589;28;20092;-73
2022/01/02 05:13:21;;;;;;;8.00;3.22;;;14.00;99.90;;;;;;2082692;28;20022;-73
2022/01/02 05:14:22;;;;;;;10.32;3.70;;;14.00;99.90;;;;;;2082534;28;20351;-73
2022/01/02 05:15:22;;;;;;;6.80;3.25;;;13.90;99.90;;;;;;2082569;28;20030;-73
2022/01/02 05:16:23;;;;;;;11.07;3.20;;;14.00;99.90;;;;;;2090634;28;20017;-73
2022/01/02 05:17:23;;;;;;;13.93;4.13;;;14.00;99.90;;;;;;2084844;28;20052;-73
2022/01/02 05:18:24;;;;;;;7.43;3.50;;;14.00;99.90;;;;;;2082783;28;20037;-73
2022/01/02 05:19:24;;;;;;;12.57;3.65;;;14.00;99.90;;;;;;2081781;28;20531;-73
2022/01/02 05:20:25;;;;;;;8.13;3.00;;;14.00;99.90;;;;;;2081943;28;20028;-73
2022/01/02 05:21:26;;;;;;;6.15;3.50;;;14.00;99.90;;;;;;2082709;28;20030;-73
2022/01/02 05:22:26;;;;;;;8.10;3.38;;;14.00;99.90;;;;;;2082575;28;20434;-73
2022/01/02 05:23:29;;;;;;;8.48;3.42;;;14.00;99.90;;;;;;2082703;28;20052;-73
2022/01/02 05:24:29;;;;;;;10.25;3.42;;;14.00;99.90;;;;;;2082733;28;20017;-73
2022/01/02 05:25:30;;;;;;;6.63;3.08;;;14.00;99.90;;;;;;2082439;28;20064;-73
2022/01/02 05:26:31;;;;;;;8.23;3.22;;;14.00;99.90;;;;;;2082546;28;20041;-73
2022/01/02 05:27:31;;;;;;;9.32;3.25;;;14.00;99.90;;;;;;2082556;28;20103;-73
2022/01/02 05:28:32;;;;;;;7.88;2.88;;;14.00;99.90;;;;;;2083523;28;20029;-73
2022/01/02 05:29:32;;;;;;;9.23;2.47;;;13.90;99.90;;;;;;2090798;28;20094;-73
2022/01/02 05:30:33;;;;;;;8.98;3.20;;;14.00;99.90;;;;;;2088118;28;20025;-73
2022/01/02 05:31:34;;;;;;;6.88;3.45;;;14.00;99.90;;;;;;2082518;28;20040;-73